Time;durP1;ratioP1;P1;durP2;ratioP2;P2;SDS_P1;SDS_P2;PMS_P1;PMS_P2;Temp;Humidity;BMP_temperature;BMP_pressure;BME280_temperature;BME280_humidity;BME280_pressure;Samples;Min_cycle;Max_cycle;Signal;HPM_P1;HPM_P2
2023/01/20 00:00:06;;;;;;;18.48;11.52;;;;;;;-1.68;66.24;99371.09;10383263;28;20060;-66
2023/01/20 00:05:08;;;;;;;17.80;11.98;;;;;;;-1.75;66.51;99385.72;10383971;28;20133;-66
2023/01/20 00:10:10;;;;;;;19.13;11.48;;;;;;;-1.79;66.48;99385.81;10383022;28;20072;-66
2023/01/20 00:15:11;;;;;;;17.60;10.23;;;;;;;-1.83;66.43;99397.84;10378873;28;20049;-67
2023/01/20 00:20:14;;;;;;;13.93;10.07;;;;;;;-1.88;66.61;99391.13;10382474;28;20414;-66
2023/01/20 00:25:16;;;;;;;16.23;10.10;;;;;;;-1.95;66.51;99397.22;10382454;28;20049;-67
2023/01/20 00:30:18;;;;;;;16.20;10.27;;;;;;;-1.98;66.67;99399.84;10382448;28;20057;-66
2023/01/20 00:35:19;;;;;;;16.25;10.63;;;;;;;-2.05;66.64;99397.41;10381189;28;20131;-66
2023/01/20 00:40:21;;;;;;;17.67;10.38;;;;;;;-2.10;66.80;99406.88;10382116;28;20072;-66
2023/01/20 00:45:23;;;;;;;24.38;11.38;;;;;;;-2.19;66.87;99413.88;10381271;28;20053;-66
2023/01/20 00:50:24;;;;;;;16.60;11.55;;;;;;;-2.29;67.03;99415.75;10381713;28;20505;-66
2023/01/20 00:55:26;;;;;;;21.02;12.20;;;;;;;-2.33;66.91;99429.47;10381023;28;20072;-66
2023/01/20 01:00:27;;;;;;;20.13;11.65;;;;;;;-2.45;66.98;99429.63;10384640;28;20583;-66
2023/01/20 01:05:29;;;;;;;18.05;10.98;;;;;;;-2.53;67.21;99430.66;10382828;28;20476;-66
2023/01/20 01:10:31;;;;;;;17.35;10.55;;;;;;;-2.48;67.14;99437.38;10379153;28;20049;-66
2023/01/20 01:15:33;;;;;;;16.27;9.52;;;;;;;-2.45;67.08;99447.56;10383536;28;20489;-66
2023/01/20 01:20:38;;;;;;;14.98;9.43;;;;;;;-2.47;66.97;99449.31;10382422;28;20490;-66
2023/01/20 01:25:39;;;;;;;15.40;9.50;;;;;;;-2.50;66.76;99458.75;10380794;28;20053;-67
2023/01/20 01:30:41;;;;;;;16.95;10.13;;;;;;;-2.54;66.88;99475.88;10380768;28;20046;-66
2023/01/20 01:35:42;;;;;;;21.13;10.45;;;;;;;-2.58;66.71;99483.63;10378610;28;20045;-66
2023/01/20 01:40:48;;;;;;;16.13;10.48;;;;;;;-2.59;66.67;99487.06;10380824;28;20705;-66
2023/01/20 01:45:50;;;;;;;16.30;10.15;;;;;;;-2.69;66.76;99486.31;10381569;28;20204;-66
2023/01/20 01:51:26;;;;;;;15.50;9.32;;;;;;;-2.76;66.71;99489.00;10378002;28;20104;-67
2023/01/20 01:56:28;;;;;;;15.52;9.65;;;;;;;-2.74;66.61;99490.66;10354600;28;20056;-66
2023/01/20 02:01:33;;;;;;;15.18;9.35;;;;;;;-2.76;66.71;99494.97;10382408;28;20083;-66
2023/01/20 02:06:39;;;;;;;19.40;9.40;;;;;;;-2.75;66.65;99496.63;10377038;28;20073;-66
2023/01/20 02:11:47;;;;;;;16.25;9.40;;;;;;;-2.78;66.52;99506.06;10379569;28;20041;-66
2023/01/20 02:17:09;;;;;;;18.85;10.77;;;;;;;-2.80;66.87;99503.53;10377702;28;20060;-67
2023/01/20 02:22:23;;;;;;;18.52;10.48;;;;;;;-2.80;66.54;99512.94;10377882;28;20513;-66
2023/01/20 02:28:11;;;;;;;17.08;10.38;;;;;;;-2.85;66.85;99520.66;10381321;28;20045;-66
2023/01/20 02:33:19;;;;;;;18.58;10.05;;;;;;;-2.53;66.66;99518.50;10394577;28;20062;-67
2023/01/20 02:38:36;;;;;;;17.05;9.48;;;;;;;-2.49;66.40;99520.16;10377186;28;20418;-66
2023/01/20 02:43:47;;;;;;;17.55;9.43;;;;;;;-2.66;66.40;99527.25;10384379;28;20053;-65
2023/01/20 02:49:12;;;;;;;16.35;10.10;;;;;;;-2.79;66.50;99530.00;10377310;28;20425;-67
2023/01/20 02:54:17;;;;;;;16.63;9.43;;;;;;;-2.86;66.46;99527.50;10377180;28;20132;-65
2023/01/20 02:59:23;;;;;;;16.08;9.88;;;;;;;-2.99;66.67;99531.06;10377812;28;20497;-66
2023/01/20 03:04:29;;;;;;;15.30;9.40;;;;;;;-3.12;66.56;99531.22;10385582;28;20049;-66
2023/01/20 03:09:36;;;;;;;15.82;9.07;;;;;;;-3.09;66.72;99531.19;10383770;28;20409;-66
2023/01/20 03:14:38;;;;;;;16.17;9.95;;;;;;;-3.05;66.67;99543.94;10383764;28;20481;-66
2023/01/20 03:19:40;;;;;;;17.45;10.05;;;;;;;-3.06;66.68;99546.50;10382991;28;20044;-66
2023/01/20 03:24:43;;;;;;;13.50;8.40;;;;;;;-3.06;66.42;99554.19;10386843;28;20041;-66
2023/01/20 03:29:45;;;;;;;16.70;9.80;;;;;;;-3.07;66.29;99562.69;10383405;28;20044;-67
2023/01/20 03:34:47;;;;;;;14.20;8.90;;;;;;;-3.08;66.42;99573.81;10382560;28;20045;-67
2023/01/20 03:39:49;;;;;;;18.65;10.13;;;;;;;-2.91;66.49;99567.63;10387541;28;20053;-66
2023/01/20 03:45:18;;;;;;;23.45;12.40;;;;;;;-2.86;66.47;99576.13;10383253;28;20413;-66
2023/01/20 03:50:48;;;;;;;21.38;11.93;;;;;;;-2.86;66.22;99582.94;10385714;28;20659;-66
2023/01/20 03:56:04;;;;;;;18.70;11.02;;;;;;;-2.79;66.06;99594.78;10392192;28;20518;-66
2023/01/20 04:01:09;;;;;;;19.25;12.60;;;;;;;-2.89;66.06;99601.72;10392438;28;20068;-66
2023/01/20 04:06:22;;;;;;;18.08;10.75;;;;;;;-2.90;66.10;99604.31;10387164;28;20053;-66
2023/01/20 04:11:25;;;;;;;18.55;10.90;;;;;;;-2.88;66.09;99607.69;10384054;28;20060;-66
2023/01/20 04:16:27;;;;;;;20.75;11.88;;;;;;;-2.89;65.92;99604.28;10383880;28;20645;-66
2023/01/20 04:21:39;;;;;;;22.17;11.38;;;;;;;-2.85;65.84;99602.53;10382629;28;20049;-66
2023/01/20 04:26:41;;;;;;;18.73;11.40;;;;;;;-2.87;66.03;99612.78;10384691;28;20064;-66
2023/01/20 04:31:43;;;;;;;17.83;10.45;;;;;;;-2.97;65.68;99621.44;10391879;28;20489;-66
2023/01/20 04:36:44;;;;;;;19.98;10.38;;;;;;;-2.96;66.19;99625.66;10392438;28;20441;-66
2023/01/20 04:41:47;;;;;;;17.65;11.00;;;;;;;-2.78;66.16;99622.09;10392975;28;20829;-67
2023/01/20 04:46:48;;;;;;;15.57;9.40;;;;;;;-2.61;66.13;99619.34;10390585;28;20413;-67
2023/01/20 04:51:50;;;;;;;15.13;9.30;;;;;;;-2.46;65.75;99627.66;10390157;28;20098;-67
2023/01/20 04:56:52;;;;;;;16.05;10.18;;;;;;;-2.44;65.70;99631.06;10391185;28;20072;-66
2023/01/20 05:01:53;;;;;;;15.15;10.07;;;;;;;-2.39;65.57;99636.13;10391038;28;20060;-66
2023/01/20 05:06:55;;;;;;;21.20;10.30;;;;;;;-2.27;65.55;99634.25;10391362;28;20304;-66
2023/01/20 05:11:57;;;;;;;16.63;10.43;;;;;;;-2.26;65.55;99643.63;10390435;28;20049;-65
2023/01/20 05:16:58;;;;;;;15.98;9.93;;;;;;;-2.22;65.61;99647.84;10390879;28;20072;-65
2023/01/20 05:22:00;;;;;;;15.75;10.25;;;;;;;-2.20;65.61;99648.66;10390881;28;20041;-64
2023/01/20 05:27:02;;;;;;;17.95;10.85;;;;;;;-2.07;65.44;99646.78;10390258;28;20064;-64
2023/01/20 05:32:03;;;;;;;19.83;12.10;;;;;;;-1.97;65.23;99653.50;10390199;28;20053;-65
2023/01/20 05:37:05;;;;;;;21.45;11.05;;;;;;;-1.91;65.08;99662.81;10389370;28;20061;-65
2023/01/20 05:42:07;;;;;;;16.50;10.18;;;;;;;-1.98;65.12;99668.00;10388281;28;20561;-65
2023/01/20 05:47:09;;;;;;;22.55;11.57;;;;;;;-1.91;65.13;99675.63;10389318;28;20502;-65
2023/01/20 05:52:10;;;;;;;17.83;10.43;;;;;;;-1.81;65.13;99682.31;10389209;28;20049;-65
2023/01/20 05:57:16;;;;;;;24.13;12.23;;;;;;;-1.89;64.96;99687.53;10389055;28;20103;-65
2023/01/20 06:02:18;;;;;;;20.75;12.75;;;;;;;-1.86;64.91;99689.22;10388149;28;20097;-65
2023/01/20 06:07:20;;;;;;;21.10;12.43;;;;;;;-1.86;64.97;99692.66;10386613;28;20057;-64
2023/01/20 06:12:23;;;;;;;19.98;12.93;;;;;;;-1.91;64.89;99708.94;10388635;28;20060;-65
2023/01/20 06:17:25;;;;;;;18.02;11.13;;;;;;;-2.14;64.92;99701.53;10388252;28;20049;-65
2023/01/20 06:22:26;;;;;;;20.98;13.25;;;;;;;-2.50;65.18;99709.66;10388469;28;20501;-66
2023/01/20 06:27:28;;;;;;;21.88;12.80;;;;;;;-2.73;65.80;99720.13;10387869;28;20405;-65
2023/01/20 06:32:30;;;;;;;24.38;14.60;;;;;;;-2.81;65.96;99727.03;10387453;28;20535;-65
2023/01/20 06:37:31;;;;;;;27.65;13.82;;;;;;;-2.79;65.89;99727.03;10387875;28;20297;-66
2023/01/20 06:42:33;;;;;;;22.00;13.50;;;;;;;-2.76;65.89;99735.50;10386176;28;20053;-65
2023/01/20 06:47:35;;;;;;;27.15;14.88;;;;;;;-2.64;65.94;99739.66;10387487;28;20068;-65
2023/01/20 06:52:36;;;;;;;25.75;15.43;;;;;;;-2.51;65.86;99734.38;10387016;28;20063;-65
2023/01/20 06:57:40;;;;;;;24.35;15.10;;;;;;;-2.40;65.34;99742.81;10385331;28;20520;-65
2023/01/20 07:02:42;;;;;;;23.35;14.57;;;;;;;-2.43;65.49;99754.81;10384375;28;20062;-65
2023/01/20 07:07:44;;;;;;;24.90;14.45;;;;;;;-2.28;65.13;99750.38;10386597;28;20118;-66
2023/01/20 07:12:46;;;;;;;22.70;14.25;;;;;;;-2.14;65.29;99760.44;10387190;28;20056;-64
2023/01/20 07:17:47;;;;;;;24.80;13.68;;;;;;;-2.09;65.09;99762.13;10386714;28;20053;-65
2023/01/20 07:22:49;;;;;;;22.83;13.57;;;;;;;-2.05;65.08;99779.16;10386409;28;20064;-65
2023/01/20 07:27:52;;;;;;;24.75;14.02;;;;;;;-1.92;64.98;99771.31;10368567;28;20300;-65
2023/01/20 07:32:53;;;;;;;23.27;14.02;;;;;;;-1.90;64.82;99784.97;10384110;28;20445;-65
2023/01/20 07:37:55;;;;;;;24.85;14.80;;;;;;;-1.88;64.71;99791.78;10385711;28;20049;-65
2023/01/20 07:42:56;;;;;;;24.27;15.45;;;;;;;-1.87;64.55;99803.69;10385792;28;20049;-65
2023/01/20 07:47:58;;;;;;;26.60;15.68;;;;;;;-1.88;64.67;99808.84;10385679;28;20482;-65
2023/01/20 07:53:00;;;;;;;27.77;14.70;;;;;;;-1.80;64.87;99802.78;10384770;28;20057;-65
2023/01/20 07:58:01;;;;;;;26.45;14.95;;;;;;;-1.70;64.46;99804.34;10385560;28;20049;-65
2023/01/20 08:03:03;;;;;;;24.20;14.65;;;;;;;-1.62;64.46;99804.25;10377442;28;20212;-65
2023/01/20 08:08:05;;;;;;;20.77;13.85;;;;;;;-1.46;64.28;99805.75;10387437;28;20062;-65
2023/01/20 08:13:06;;;;;;;23.35;13.82;;;;;;;-1.39;63.90;99812.50;10387094;28;20382;-65
2023/01/20 08:18:08;;;;;;;24.02;13.85;;;;;;;-1.39;63.95;99820.19;10382565;28;20053;-65
2023/01/20 08:23:09;;;;;;;21.67;12.73;;;;;;;-1.36;63.80;99825.28;10386943;28;20064;-65
2023/01/20 08:28:11;;;;;;;21.05;13.45;;;;;;;-1.08;64.11;99824.00;10373345;28;20053;-65
2023/01/20 08:33:13;;;;;;;24.48;14.00;;;;;;;-0.98;63.66;99828.13;10389333;28;20045;-65
2023/01/20 08:38:15;;;;;;;22.77;13.75;;;;;;;-1.13;63.64;99830.09;10388564;28;20045;-65
2023/01/20 08:43:16;;;;;;;20.30;13.90;;;;;;;-1.11;63.85;99838.63;10382139;28;20615;-65
2023/01/20 08:48:18;;;;;;;21.42;13.57;;;;;;;-1.12;63.80;99853.16;10387336;28;20041;-65
2023/01/20 08:53:20;;;;;;;23.50;14.10;;;;;;;-1.03;63.85;99858.16;10388479;28;20052;-65
2023/01/20 08:58:22;;;;;;;21.05;13.23;;;;;;;-0.77;63.78;99866.34;10389776;28;20053;-65
2023/01/20 09:03:26;;;;;;;19.55;13.15;;;;;;;-0.60;63.30;99860.94;10386406;28;20807;-66
2023/01/20 09:08:28;;;;;;;25.45;14.20;;;;;;;-0.72;63.20;99868.84;10387123;28;20056;-66
2023/01/20 09:13:30;;;;;;;22.15;14.05;;;;;;;-0.86;63.44;99863.06;10384045;28;20041;-65
2023/01/20 09:18:33;;;;;;;24.58;12.60;;;;;;;-0.59;63.34;99862.63;10387601;28;20057;-64
2023/01/20 09:23:37;;;;;;;19.77;12.85;;;;;;;-0.46;63.18;99867.56;10387400;28;20421;-65
2023/01/20 09:28:41;;;;;;;22.58;13.77;;;;;;;-0.36;62.91;99869.09;10386663;28;20493;-65
2023/01/20 09:33:42;;;;;;;23.77;14.65;;;;;;;-0.56;63.04;99860.88;10384059;28;20419;-65
2023/01/20 09:44:20;;;;;;;19.60;13.40;;;;;;;-0.37;63.46;99875.09;10383266;28;20059;-66
2023/01/20 09:55:02;;;;;;;24.45;15.15;;;;;;;-0.29;63.29;99879.28;10384597;28;20552;-66
2023/01/20 10:00:20;;;;;;;27.67;16.20;;;;;;;-0.75;63.83;99881.72;10382993;28;20057;-65
2023/01/20 10:05:31;;;;;;;25.02;16.10;;;;;;;-0.86;64.42;99887.00;10385502;28;20050;-65
2023/01/20 10:10:42;;;;;;;27.17;16.88;;;;;;;-0.62;64.19;99883.22;10383491;28;20049;-64
2023/01/20 10:15:51;;;;;;;24.33;15.95;;;;;;;-0.51;63.98;99876.19;10383498;28;20205;-65
2023/01/20 10:21:35;;;;;;;23.90;14.82;;;;;;;-0.55;64.28;99875.41;10384129;28;20045;-65
2023/01/20 10:26:48;;;;;;;24.00;15.63;;;;;;;-0.38;64.17;99863.16;10379537;28;20050;-65
2023/01/20 10:31:58;;;;;;;23.00;15.70;;;;;;;-0.13;63.83;99858.44;10382002;28;20041;-65
2023/01/20 10:37:09;;;;;;;25.35;16.33;;;;;;;0.07;63.56;99863.19;10385270;28;20050;-65
2023/01/20 10:42:14;;;;;;;24.23;15.00;;;;;;;0.07;63.55;99865.78;10381714;28;20045;-66
2023/01/20 10:47:24;;;;;;;32.67;17.50;;;;;;;0.08;63.55;99862.31;10380560;28;20119;-65
2023/01/20 10:52:44;;;;;;;29.85;16.65;;;;;;;0.08;63.73;99855.44;10380921;28;20387;-65
2023/01/20 10:57:55;;;;;;;25.00;15.25;;;;;;;0.29;63.35;99852.47;10383963;28;20042;-66
2023/01/20 11:03:00;;;;;;;21.57;14.03;;;;;;;0.26;63.49;99859.41;10379993;28;20504;-65
2023/01/20 11:08:05;;;;;;;21.55;14.65;;;;;;;0.63;63.40;99862.94;10384415;28;20073;-65
2023/01/20 11:13:09;;;;;;;25.88;14.25;;;;;;;0.87;63.10;99864.16;10380821;28;20057;-65
2023/01/20 11:18:14;;;;;;;21.75;13.65;;;;;;;0.90;63.09;99859.78;10379805;28;20049;-65
2023/01/20 11:23:35;;;;;;;16.45;10.50;;;;;;;0.98;62.71;99855.31;10382489;28;20049;-65
2023/01/20 11:28:47;;;;;;;19.73;11.87;;;;;;;1.06;62.61;99855.97;10382260;28;20057;-65
2023/01/20 11:33:57;;;;;;;15.57;10.15;;;;;;;1.43;62.02;99857.69;10379346;28;20072;-65
2023/01/20 11:38:59;;;;;;;14.20;8.90;;;;;;;1.87;61.23;99862.63;10383046;28;20045;-66
2023/01/20 11:44:00;;;;;;;14.55;8.95;;;;;;;2.24;60.56;99858.16;10379929;28;20048;-65
2023/01/20 11:49:21;;;;;;;15.93;9.10;;;;;;;2.53;59.06;99853.03;10384246;28;20047;-65
2023/01/20 11:54:25;;;;;;;48.50;23.55;;;;;;;2.81;59.05;99851.34;10378731;28;20217;-65
2023/01/20 11:59:29;;;;;;;14.77;7.78;;;;;;;2.76;58.25;99853.25;10377722;28;20072;-65
2023/01/20 12:04:37;;;;;;;13.88;8.25;;;;;;;2.42;58.67;99862.81;10379614;28;20053;-65
2023/01/20 12:09:43;;;;;;;12.35;7.72;;;;;;;2.58;58.09;99863.25;10381688;28;20063;-65
2023/01/20 12:15:02;;;;;;;17.92;7.85;;;;;;;2.62;57.54;99863.09;10376089;28;20607;-65
2023/01/20 12:20:38;;;;;;;11.68;7.53;;;;;;;3.08;56.10;99854.84;10383013;28;20045;-65
2023/01/20 12:25:59;;;;;;;13.35;7.72;;;;;;;3.28;57.19;99859.38;10379297;28;20443;-65
2023/01/20 12:31:03;;;;;;;12.75;7.13;;;;;;;3.02;57.38;99855.88;10379573;28;20390;-65
2023/01/20 12:36:35;;;;;;;11.50;7.25;;;;;;;2.92;56.77;99862.22;10379812;28;20088;-65
2023/01/20 12:42:05;;;;;;;12.75;7.22;;;;;;;2.80;56.89;99854.84;10378662;28;20060;-65
2023/01/20 12:47:43;;;;;;;13.55;6.30;;;;;;;2.75;56.34;99855.84;10381307;28;20409;-65
2023/01/20 12:53:01;;;;;;;13.10;6.93;;;;;;;2.71;57.28;99865.44;10385467;28;20033;-65
2023/01/20 12:58:16;;;;;;;11.32;6.80;;;;;;;2.89;56.96;99866.63;10385146;28;20568;-65
2023/01/20 13:03:36;;;;;;;11.75;6.40;;;;;;;3.02;56.65;99866.22;10382687;28;20046;-65
2023/01/20 13:09:10;;;;;;;10.82;5.95;;;;;;;3.28;56.54;99868.00;10388435;28;20076;-65
2023/01/20 13:14:22;;;;;;;8.77;5.88;;;;;;;3.45;55.63;99870.06;10349823;28;20045;-65
2023/01/20 13:19:31;;;;;;;10.13;6.22;;;;;;;3.50;55.42;99852.63;10383514;28;20288;-65
2023/01/20 13:24:33;;;;;;;10.52;5.50;;;;;;;3.35;55.31;99855.72;10386103;28;20076;-65
2023/01/20 13:29:35;;;;;;;12.23;5.75;;;;;;;3.24;55.80;99856.06;10388828;28;20065;-64
2023/01/20 13:34:39;;;;;;;9.43;5.30;;;;;;;3.30;55.59;99855.88;10384225;28;20183;-65
2023/01/20 13:39:44;;;;;;;8.02;5.28;;;;;;;3.36;55.63;99860.00;10386956;28;20084;-65
2023/01/20 13:45:09;;;;;;;9.85;4.75;;;;;;;3.18;54.85;99863.16;10384726;28;20871;-65
2023/01/20 13:50:27;;;;;;;10.30;4.75;;;;;;;3.21;55.03;99863.06;10387158;28;20095;-65
2023/01/20 13:55:44;;;;;;;8.18;4.60;;;;;;;3.29;54.56;99863.69;10381271;28;20049;-65
2023/01/20 14:00:49;;;;;;;10.77;4.85;;;;;;;3.35;55.11;99864.34;10385760;28;20065;-65
2023/01/20 14:06:00;;;;;;;9.65;4.70;;;;;;;3.37;54.59;99859.13;10383266;28;20140;-65
2023/01/20 14:11:11;;;;;;;10.93;5.80;;;;;;;3.34;55.00;99874.69;10385968;28;20041;-65
2023/01/20 14:16:33;;;;;;;12.70;5.22;;;;;;;3.35;55.17;99871.25;10385020;28;20280;-65
2023/01/20 14:21:41;;;;;;;11.63;5.50;;;;;;;3.23;54.62;99884.53;10383064;28;20409;-65
2023/01/20 14:26:43;;;;;;;8.73;5.25;;;;;;;3.05;55.74;99875.59;10384255;28;20056;-65
2023/01/20 14:31:45;;;;;;;10.55;5.35;;;;;;;2.95;55.74;99880.19;10382518;28;20442;-65
2023/01/20 14:36:47;;;;;;;10.38;5.57;;;;;;;2.85;56.01;99883.94;10382711;28;20049;-65
2023/01/20 14:41:53;;;;;;;10.25;5.88;;;;;;;2.84;55.87;99895.19;10383704;28;20060;-65
2023/01/20 14:46:57;;;;;;;14.10;8.93;;;;;;;2.54;57.28;99898.59;10384498;28;20111;-65
2023/01/20 14:51:59;;;;;;;18.83;10.85;;;;;;;2.33;58.09;99904.38;10383311;28;20056;-65
2023/01/20 14:57:24;;;;;;;16.40;10.73;;;;;;;2.29;58.40;99907.06;10382932;28;20060;-65
2023/01/20 15:02:34;;;;;;;20.13;10.88;;;;;;;2.31;58.27;99907.88;10380365;28;20054;-65
2023/01/20 15:07:36;;;;;;;17.77;11.13;;;;;;;2.27;58.35;99914.84;10383876;28;20416;-65
2023/01/20 15:12:47;;;;;;;20.33;12.10;;;;;;;2.21;58.32;99917.59;10381126;28;20052;-65
2023/01/20 15:18:10;;;;;;;24.92;12.65;;;;;;;2.22;58.70;99927.03;10383581;28;20052;-64
2023/01/20 15:23:19;;;;;;;23.48;14.25;;;;;;;2.25;59.73;99933.84;10381459;28;20405;-65
2023/01/20 15:28:25;;;;;;;23.13;15.07;;;;;;;2.13;60.27;99938.41;10380310;28;20068;-65
2023/01/20 15:33:27;;;;;;;21.65;15.45;;;;;;;2.14;60.58;99944.44;10380493;28;20053;-66
2023/01/20 15:38:30;;;;;;;22.83;15.80;;;;;;;2.07;60.89;99950.66;10383513;28;20041;-65
2023/01/20 15:43:32;;;;;;;27.90;17.35;;;;;;;1.82;61.91;99952.97;10380973;28;20052;-66
2023/01/20 15:48:34;;;;;;;25.33;17.85;;;;;;;1.85;61.91;99954.59;10384031;28;20060;-65
2023/01/20 15:53:35;;;;;;;35.28;19.85;;;;;;;1.86;62.24;99956.31;10376176;28;20053;-64
2023/01/20 15:58:37;;;;;;;32.50;20.73;;;;;;;1.88;62.33;99959.72;10379292;28;20313;-65
2023/01/20 16:03:38;;;;;;;33.92;20.25;;;;;;;1.82;62.57;99967.59;10379742;28;20050;-65
2023/01/20 16:08:42;;;;;;;31.60;18.20;;;;;;;1.65;63.21;99980.88;10378601;28;20065;-65
2023/01/20 16:13:44;;;;;;;31.73;18.83;;;;;;;1.54;63.41;99994.88;10377900;28;20046;-65
2023/01/20 16:18:47;;;;;;;48.95;28.42;;;;;;;1.48;63.88;100002.75;10378886;28;20046;-65
2023/01/20 16:23:48;;;;;;;43.35;24.90;;;;;;;1.43;64.06;100007.16;10380415;28;20050;-65
2023/01/20 16:28:52;;;;;;;47.40;27.15;;;;;;;1.46;64.28;100020.84;10383845;28;20060;-65
2023/01/20 16:33:54;;;;;;;25.90;16.00;;;;;;;1.52;64.27;100020.72;10386786;28;20046;-65
2023/01/20 16:38:56;;;;;;;25.35;15.18;;;;;;;1.54;64.12;100025.81;10388129;28;20045;-65
2023/01/20 16:43:58;;;;;;;25.05;15.68;;;;;;;1.56;64.14;100036.94;10383627;28;20390;-65
2023/01/20 16:49:01;;;;;;;21.83;13.35;;;;;;;1.40;64.32;100040.72;10386279;28;20495;-65
2023/01/20 16:54:03;;;;;;;25.73;14.95;;;;;;;1.28;64.89;100050.41;10379595;28;20502;-65
2023/01/20 16:59:06;;;;;;;19.58;13.48;;;;;;;1.22;65.10;100047.09;10386164;28;20053;-65
2023/01/20 17:04:09;;;;;;;22.52;14.70;;;;;;;1.00;65.44;100056.97;10381081;28;20051;-65
2023/01/20 17:09:11;;;;;;;20.42;13.00;;;;;;;0.97;65.93;100054.44;10377198;28;20431;-65
2023/01/20 17:14:14;;;;;;;13.18;8.27;;;;;;;1.03;65.37;100068.94;10379302;28;20050;-65
2023/01/20 17:19:16;;;;;;;19.50;10.52;;;;;;;1.05;65.32;100064.63;10387042;28;20049;-65
2023/01/20 17:24:18;;;;;;;16.25;11.20;;;;;;;1.15;65.17;100072.16;10382613;28;20045;-65
2023/01/20 17:29:20;;;;;;;19.45;13.23;;;;;;;1.10;65.38;100071.38;10385861;28;20037;-65
2023/01/20 17:34:22;;;;;;;23.77;14.75;;;;;;;0.88;65.85;100072.66;10376042;28;20825;-66
2023/01/20 17:39:24;;;;;;;18.52;12.90;;;;;;;0.92;65.72;100066.56;10376443;28;20049;-65
2023/01/20 17:44:25;;;;;;;23.05;14.35;;;;;;;0.80;66.14;100079.66;10359619;28;20057;-65
2023/01/20 17:49:27;;;;;;;17.80;10.63;;;;;;;0.84;65.76;100091.59;10384587;28;20475;-65
2023/01/20 17:54:29;;;;;;;20.25;12.32;;;;;;;0.77;65.89;100102.06;10377169;28;20447;-65
2023/01/20 17:59:30;;;;;;;18.80;12.55;;;;;;;0.76;65.91;100102.91;10383727;28;20092;-65
2023/01/20 18:04:32;;;;;;;19.13;13.30;;;;;;;0.79;65.89;100108.84;10375663;28;20560;-65
2023/01/20 18:09:33;;;;;;;18.95;11.75;;;;;;;0.58;66.15;100111.81;10377106;28;20049;-65
2023/01/20 18:14:35;;;;;;;18.98;10.63;;;;;;;0.49;66.50;100110.22;10383316;28;20494;-65
2023/01/20 18:19:37;;;;;;;19.02;12.52;;;;;;;0.37;66.85;100127.56;10382199;28;20061;-65
2023/01/20 18:24:39;;;;;;;18.73;13.05;;;;;;;0.42;66.95;100130.94;10377222;28;20064;-65
2023/01/20 18:29:40;;;;;;;19.63;12.20;;;;;;;0.35;67.00;100126.75;10378332;28;20041;-66
2023/01/20 18:34:42;;;;;;;19.83;13.65;;;;;;;0.39;66.91;100134.41;10377192;28;20049;-65
2023/01/20 18:39:43;;;;;;;23.25;14.73;;;;;;;0.31;67.67;100137.94;10379822;28;20033;-65
2023/01/20 18:44:45;;;;;;;22.55;14.38;;;;;;;0.45;67.67;100146.31;10375485;28;20049;-65
2023/01/20 18:49:47;;;;;;;20.58;12.98;;;;;;;0.57;67.17;100137.53;10373892;28;20494;-65
2023/01/20 18:54:48;;;;;;;19.83;12.93;;;;;;;0.62;67.24;100152.06;10371774;28;20050;-65
2023/01/20 18:59:50;;;;;;;25.17;15.38;;;;;;;0.43;67.59;100154.06;10383479;28;20252;-65
2023/01/20 19:04:52;;;;;;;29.05;17.17;;;;;;;0.38;67.79;100157.59;10380997;28;20057;-65
2023/01/20 19:09:54;;;;;;;32.75;18.23;;;;;;;0.44;67.81;100157.50;10382629;28;20429;-65
2023/01/20 19:14:56;;;;;;;34.08;20.02;;;;;;;0.28;68.22;100172.28;10372420;28;20049;-65
2023/01/20 19:19:58;;;;;;;37.08;21.23;;;;;;;0.30;68.37;100177.44;10377360;28;20540;-65
2023/01/20 19:24:59;;;;;;;44.83;22.50;;;;;;;0.30;68.48;100174.84;10371943;28;20088;-65
2023/01/20 19:30:01;;;;;;;42.55;23.25;;;;;;;0.26;68.69;100178.34;10375419;28;20048;-65
2023/01/20 19:35:03;;;;;;;34.17;21.00;;;;;;;0.32;68.47;100179.06;10372653;28;20045;-65
2023/01/20 19:40:04;;;;;;;28.75;17.77;;;;;;;0.25;68.77;100192.91;10374448;28;20049;-65
2023/01/20 19:45:07;;;;;;;27.85;17.80;;;;;;;0.31;68.52;100187.69;10372638;28;20037;-65
2023/01/20 19:50:09;;;;;;;29.42;18.38;;;;;;;0.36;68.51;100200.50;10374221;28;21361;-65
2023/01/20 19:55:11;;;;;;;38.55;21.60;;;;;;;0.42;68.47;100203.78;10373341;28;20041;-65
2023/01/20 20:00:13;;;;;;;32.05;19.88;;;;;;;0.63;68.21;100205.22;10381293;28;20056;-65
2023/01/20 20:05:15;;;;;;;40.13;23.00;;;;;;;0.80;67.95;100204.94;10381530;28;20127;-66
2023/01/20 20:10:17;;;;;;;33.00;21.30;;;;;;;0.91;67.57;100211.63;10382335;28;20650;-65
2023/01/20 20:15:19;;;;;;;58.42;31.08;;;;;;;0.77;67.95;100212.75;10380552;28;20832;-65
2023/01/20 20:20:21;;;;;;;65.53;31.30;;;;;;;0.73;67.91;100214.47;10383010;28;20049;-66
2023/01/20 20:25:22;;;;;;;72.13;33.28;;;;;;;0.66;67.93;100218.03;10377612;28;20056;-66
2023/01/20 20:30:24;;;;;;;60.58;31.42;;;;;;;0.56;68.58;100231.06;10384580;28;20336;-66
2023/01/20 20:35:26;;;;;;;91.47;36.40;;;;;;;0.52;68.40;100235.41;10385010;28;20084;-65
2023/01/20 20:40:28;;;;;;;54.03;28.48;;;;;;;0.58;68.36;100235.31;10381894;28;20045;-65
2023/01/20 20:45:30;;;;;;;53.60;28.95;;;;;;;0.54;68.50;100237.06;10382785;28;20413;-65
2023/01/20 20:50:32;;;;;;;64.63;31.58;;;;;;;0.61;68.46;100242.97;10385510;28;20524;-65
2023/01/20 20:55:41;;;;;;;65.95;34.20;;;;;;;0.68;68.31;100243.75;10381645;28;20041;-66
2023/01/20 21:00:47;;;;;;;76.13;34.85;;;;;;;0.70;68.44;100248.00;10380812;28;20423;-65
2023/01/20 21:05:49;;;;;;;58.50;32.45;;;;;;;0.43;68.74;100256.97;10382907;28;20432;-65
2023/01/20 21:10:51;;;;;;;65.57;33.75;;;;;;;0.31;68.94;100258.84;10382343;28;20489;-65
2023/01/20 21:15:59;;;;;;;59.65;32.80;;;;;;;0.39;69.23;100265.59;10381326;28;20046;-65
2023/01/20 21:21:02;;;;;;;56.63;31.70;;;;;;;0.37;69.09;100277.63;10380323;28;20037;-65
2023/01/20 21:26:11;;;;;;;69.22;32.08;;;;;;;0.31;69.54;100272.56;10377989;28;20053;-66
2023/01/20 21:31:14;;;;;;;62.15;32.17;;;;;;;0.30;69.39;100288.03;10382008;28;20271;-65
2023/01/20 21:36:16;;;;;;;66.30;32.05;;;;;;;0.26;69.83;100283.78;10382281;28;20049;-65
2023/01/20 21:41:18;;;;;;;51.10;29.95;;;;;;;0.39;69.47;100293.03;10382705;28;20052;-66
2023/01/20 21:46:20;;;;;;;51.03;29.70;;;;;;;0.49;69.53;100302.34;10377795;28;20049;-65
2023/01/20 21:56:42;;;;;;;49.03;30.53;;;;;;;0.40;69.44;100311.03;10384901;28;20313;-65
2023/01/20 22:01:44;;;;;;;57.63;32.35;;;;;;;0.57;69.29;100318.53;10383703;28;20064;-65
2023/01/20 22:06:46;;;;;;;62.97;34.13;;;;;;;0.51;69.23;100319.47;10381026;28;20060;-65
2023/01/20 22:11:48;;;;;;;41.35;27.88;;;;;;;0.50;69.29;100327.22;10379982;28;20506;-65
2023/01/20 22:16:49;;;;;;;43.15;28.35;;;;;;;0.53;69.30;100332.31;10378029;28;20048;-65
2023/01/20 22:21:51;;;;;;;40.35;27.13;;;;;;;0.50;69.30;100340.09;10379254;28;20738;-65
2023/01/20 22:26:53;;;;;;;44.22;28.17;;;;;;;0.31;69.61;100361.75;10380443;28;20835;-65
2023/01/20 22:31:58;;;;;;;44.30;28.40;;;;;;;0.35;69.76;100363.41;10379844;28;20041;-65
2023/01/20 22:37:00;;;;;;;36.42;26.30;;;;;;;0.32;69.70;100371.19;10383942;28;20085;-65
2023/01/20 22:42:02;;;;;;;39.70;26.85;;;;;;;0.44;69.50;100368.47;10377668;28;20037;-65
2023/01/20 22:47:04;;;;;;;43.28;28.48;;;;;;;0.39;69.60;100380.50;10375937;28;20048;-65
2023/01/20 22:52:06;;;;;;;40.38;27.60;;;;;;;0.44;69.48;100381.31;10378834;28;20056;-65
2023/01/20 22:57:07;;;;;;;48.75;29.35;;;;;;;0.23;69.90;100391.84;10378968;28;20057;-65
2023/01/20 23:02:09;;;;;;;40.78;27.30;;;;;;;0.28;70.07;100402.94;10378371;28;20060;-65
2023/01/20 23:07:11;;;;;;;41.70;27.55;;;;;;;0.30;69.70;100403.78;10375390;28;20106;-65
2023/01/20 23:12:12;;;;;;;45.08;28.20;;;;;;;0.20;69.98;100410.72;10377687;28;20049;-65
2023/01/20 23:17:14;;;;;;;38.08;26.05;;;;;;;0.09;69.96;100416.84;10374026;28;20153;-65
2023/01/20 23:22:16;;;;;;;39.30;25.92;;;;;;;0.10;70.09;100418.53;10378005;28;20103;-65
2023/01/20 23:27:17;;;;;;;45.15;28.77;;;;;;;0.10;70.17;100423.69;10377751;28;20553;-65